Time;durP1;ratioP1;P1;durP2;ratioP2;P2;SDS_P1;SDS_P2;PMS_P1;PMS_P2;Temp;Humidity;BMP_temperature;BMP_pressure;BME280_temperature;BME280_humidity;BME280_pressure;Samples;Min_cycle;Max_cycle;Signal;HPM_P1;HPM_P2
2024/03/30 00:01:08;;;;;;;;;;;;;;;22.36;35.68;99209.19;4214798;28;19928;-67
2024/03/30 00:03:09;;;;;;;;;;;;;;;22.36;35.60;99209.19;4215181;28;19946;-66
2024/03/30 00:05:10;;;;;;;;;;;;;;;22.37;35.70;99207.34;4215093;28;19924;-67
2024/03/30 00:07:12;;;;;;;;;;;;;;;22.34;35.79;99204.00;4215298;28;19931;-66
2024/03/30 00:09:13;;;;;;;;;;;;;;;22.36;35.65;99206.53;4214886;28;19946;-67
2024/03/30 00:11:14;;;;;;;;;;;;;;;22.38;35.70;99195.63;4214943;28;19924;-66
2024/03/30 00:13:15;;;;;;;;;;;;;;;22.37;35.67;99197.50;4215155;28;19930;-67
2024/03/30 00:15:16;;;;;;;;;;;;;;;22.36;35.77;99190.47;4198033;28;19931;-67
2024/03/30 00:17:17;;;;;;;;;;;;;;;22.36;35.56;99195.81;4215074;28;19985;-66
2024/03/30 00:19:21;;;;;;;;;;;;;;;22.34;35.74;99193.28;4214828;28;19928;-68
2024/03/30 00:21:22;;;;;;;;;;;;;;;22.34;35.72;99193.28;4214958;28;20415;-67
2024/03/30 00:23:23;;;;;;;;;;;;;;;22.34;35.51;99192.47;4214919;28;20085;-67
2024/03/30 00:25:24;;;;;;;;;;;;;;;22.33;35.76;99190.78;4214948;28;20332;-68
2024/03/30 00:27:25;;;;;;;;;;;;;;;22.33;35.51;99193.47;4215044;28;19930;-67
2024/03/30 00:29:26;;;;;;;;;;;;;;;22.33;35.71;99183.59;4214228;28;19930;-69
2024/03/30 00:31:29;;;;;;;;;;;;;;;22.35;35.40;99178.06;4214486;28;19924;-67
2024/03/30 00:33:30;;;;;;;;;;;;;;;22.33;35.59;99180.91;4214761;28;19924;-67
2024/03/30 00:35:31;;;;;;;;;;;;;;;22.34;35.49;99181.75;4214724;28;19924;-67
2024/03/30 00:37:32;;;;;;;;;;;;;;;22.33;35.40;99178.25;4214638;28;20328;-67
2024/03/30 00:39:33;;;;;;;;;;;;;;;22.35;35.72;99172.72;4214309;28;19928;-67
2024/03/30 00:41:34;;;;;;;;;;;;;;;22.34;35.49;99174.53;4213920;28;19935;-67
2024/03/30 00:43:35;;;;;;;;;;;;;;;22.33;35.46;99175.56;4214318;28;19924;-67
2024/03/30 00:45:37;;;;;;;;;;;;;;;22.31;35.68;99174.88;4214728;28;20380;-68
2024/03/30 00:47:39;;;;;;;;;;;;;;;22.32;35.78;99173.03;4214335;28;19986;-67
2024/03/30 00:49:40;;;;;;;;;;;;;;;22.31;35.63;99168.72;4214359;28;19932;-68
2024/03/30 00:51:41;;;;;;;;;;;;;;;22.31;35.79;99168.72;4214339;28;19937;-68
2024/03/30 00:53:42;;;;;;;;;;;;;;;22.30;35.52;99164.34;4214283;28;19931;-67
2024/03/30 00:55:44;;;;;;;;;;;;;;;22.31;35.41;99161.50;4214433;28;19928;-68
2024/03/30 00:57:45;;;;;;;;;;;;;;;22.30;35.68;99159.81;4214224;28;19931;-67
2024/03/30 00:59:46;;;;;;;;;;;;;;;22.30;35.58;99165.19;4213924;28;19924;-67
2024/03/30 01:01:49;;;;;;;;;;;;;;;22.30;35.74;99154.47;4214164;28;19924;-67
2024/03/30 01:03:51;;;;;;;;;;;;;;;22.30;35.61;99151.78;4214113;28;19931;-69
2024/03/30 01:05:52;;;;;;;;;;;;;;;22.29;35.67;99143.94;4214278;28;20308;-68
2024/03/30 01:07:53;;;;;;;;;;;;;;;22.30;35.43;99137.56;4213944;28;20038;-68
2024/03/30 01:09:54;;;;;;;;;;;;;;;22.30;35.45;99133.03;4214175;28;20330;-68
2024/03/30 01:11:55;;;;;;;;;;;;;;;22.32;35.33;99132.84;4213942;28;19936;-67
2024/03/30 01:13:57;;;;;;;;;;;;;;;22.30;35.40;99130.34;4213493;28;20317;-67
2024/03/30 01:15:58;;;;;;;;;;;;;;;22.29;35.44;99122.50;4214003;28;19950;-68
2024/03/30 01:17:59;;;;;;;;;;;;;;;22.29;35.59;99128.69;4213858;28;19924;-67
2024/03/30 01:20:07;;;;;;;;;;;;;;;22.29;35.63;99125.19;4213836;28;19931;-67
2024/03/30 01:22:08;;;;;;;;;;;;;;;22.29;35.43;99122.50;4197380;28;19924;-68
2024/03/30 01:24:09;;;;;;;;;;;;;;;22.27;35.71;99122.69;4247745;27;19923;-68
2024/03/30 01:26:15;;;;;;;;;;;;;;;22.27;35.71;99119.16;4197270;28;20397;-68
2024/03/30 01:28:16;;;;;;;;;;;;;;;22.27;35.63;99119.16;4213527;28;19932;-67
2024/03/30 01:30:18;;;;;;;;;;;;;;;22.29;35.62;99119.81;4213566;28;19931;-68
2024/03/30 01:32:20;;;;;;;;;;;;;;;22.28;35.64;99107.44;4213878;28;19950;-67
2024/03/30 01:34:21;;;;;;;;;;;;;;;22.27;35.52;99103.06;4213686;28;19930;-67
2024/03/30 01:36:22;;;;;;;;;;;;;;;22.27;35.68;99095.03;4213561;28;19924;-68
2024/03/30 01:38:23;;;;;;;;;;;;;;;22.26;35.35;99102.25;4213658;28;19928;-67
2024/03/30 01:40:29;;;;;;;;;;;;;;;22.26;35.75;99102.25;4213530;28;19930;-68
2024/03/30 01:42:31;;;;;;;;;;;;;;;22.27;35.45;99103.94;4213244;28;19950;-68
2024/03/30 01:44:32;;;;;;;;;;;;;;;22.28;35.31;99091.38;4213514;28;19924;-68
2024/03/30 01:46:34;;;;;;;;;;;;;;;22.27;35.62;99089.69;4213575;28;20416;-68
2024/03/30 01:48:35;;;;;;;;;;;;;;;22.26;35.33;99090.69;4213461;28;19924;-67
2024/03/30 01:50:38;;;;;;;;;;;;;;;22.27;35.59;99089.69;4213479;28;19924;-67
2024/03/30 01:52:39;;;;;;;;;;;;;;;22.24;35.66;99080.16;4212839;28;19932;-68
2024/03/30 01:54:40;;;;;;;;;;;;;;;22.23;35.77;99075.81;4213409;28;19924;-67
2024/03/30 01:56:43;;;;;;;;;;;;;;;22.26;35.74;99082.66;4212962;28;19930;-68
2024/03/30 01:58:47;;;;;;;;;;;;;;;22.24;35.61;99080.16;4213495;28;19930;-67
2024/03/30 02:00:49;;;;;;;;;;;;;;;22.24;35.73;99076.66;4213398;28;19924;-67
2024/03/30 02:02:51;;;;;;;;;;;;;;;22.23;35.55;99083.00;4213413;28;19924;-67
2024/03/30 02:04:53;;;;;;;;;;;;;;;22.25;35.57;99072.94;4213103;28;19930;-68
2024/03/30 02:06:55;;;;;;;;;;;;;;;22.25;35.53;99072.94;4212970;28;19927;-67
2024/03/30 02:08:59;;;;;;;;;;;;;;;22.25;35.62;99072.94;4213032;28;19935;-67
2024/03/30 02:11:00;;;;;;;;;;;;;;;22.26;35.58;99071.94;4212944;28;19931;-67
2024/03/30 02:13:01;;;;;;;;;;;;;;;22.25;35.46;99072.94;4213224;28;19986;-67
2024/03/30 02:15:02;;;;;;;;;;;;;;;22.25;35.39;99067.59;4213055;28;19924;-68
2024/03/30 02:17:04;;;;;;;;;;;;;;;22.24;35.51;99068.63;4213080;28;19932;-67
2024/03/30 02:19:05;;;;;;;;;;;;;;;22.23;35.29;99065.09;4213261;28;20405;-67
2024/03/30 02:21:06;;;;;;;;;;;;;;;22.21;35.38;99060.91;4213041;28;19928;-67
2024/03/30 02:23:12;;;;;;;;;;;;;;;22.20;35.66;99061.91;4212838;28;19924;-67
2024/03/30 02:25:13;;;;;;;;;;;;;;;22.20;35.74;99068.13;4212642;28;19930;-67
2024/03/30 02:27:14;;;;;;;;;;;;;;;22.18;35.37;99079.00;4213012;28;19931;-67
2024/03/30 02:29:16;;;;;;;;;;;;;;;22.18;35.54;99073.63;4212901;28;20321;-67
2024/03/30 02:31:18;;;;;;;;;;;;;;;22.18;35.80;99076.31;4212991;28;19925;-67
2024/03/30 02:33:20;;;;;;;;;;;;;;;22.21;35.74;99074.31;4213038;28;19934;-67
2024/03/30 02:35:21;;;;;;;;;;;;;;;22.22;35.58;99076.81;4212865;28;19930;-67
2024/03/30 02:37:23;;;;;;;;;;;;;;;22.21;35.65;99069.78;4212889;28;19977;-66
2024/03/30 02:39:24;;;;;;;;;;;;;;;22.22;35.43;99070.63;4212957;28;19930;-67
2024/03/30 02:41:25;;;;;;;;;;;;;;;22.21;35.68;99066.28;4212614;28;20317;-67
2024/03/30 02:43:26;;;;;;;;;;;;;;;22.20;35.69;99065.44;4212752;28;20417;-66
2024/03/30 02:45:27;;;;;;;;;;;;;;;22.22;35.70;99073.31;4212762;28;19930;-66
2024/03/30 02:47:28;;;;;;;;;;;;;;;22.20;35.43;99064.59;4212530;28;19928;-66
2024/03/30 02:49:29;;;;;;;;;;;;;;;22.18;35.35;99068.28;4212914;28;20304;-67
2024/03/30 02:51:30;;;;;;;;;;;;;;;22.17;35.70;99068.47;4212709;28;19924;-67
2024/03/30 02:53:31;;;;;;;;;;;;;;;22.18;35.62;99067.44;4212797;28;19936;-68
2024/03/30 02:55:32;;;;;;;;;;;;;;;22.17;35.47;99063.91;4212144;28;20317;-67
2024/03/30 02:57:33;;;;;;;;;;;;;;;22.16;35.44;99067.63;4212587;28;19970;-67
2024/03/30 02:59:34;;;;;;;;;;;;;;;22.17;35.55;99068.47;4212633;28;19946;-66
2024/03/30 03:01:37;;;;;;;;;;;;;;;22.16;35.79;99069.47;4212527;28;20473;-66
2024/03/30 03:03:38;;;;;;;;;;;;;;;22.18;35.50;99064.78;4212329;28;19939;-66
2024/03/30 03:05:39;;;;;;;;;;;;;;;22.16;35.44;99059.59;4212407;28;19924;-66
2024/03/30 03:07:42;;;;;;;;;;;;;;;22.17;35.36;99055.06;4212382;28;19924;-67
2024/03/30 03:09:43;;;;;;;;;;;;;;;22.18;35.32;99059.41;4211946;28;19924;-67
2024/03/30 03:11:45;;;;;;;;;;;;;;;22.17;35.74;99069.28;4212184;28;19924;-68
2024/03/30 03:13:46;;;;;;;;;;;;;;;22.17;35.68;99065.78;4212504;28;19930;-66
2024/03/30 03:15:47;;;;;;;;;;;;;;;22.15;35.25;99068.63;4212288;28;20393;-66
2024/03/30 03:17:48;;;;;;;;;;;;;;;22.14;35.43;99064.28;4212514;28;20275;-65
2024/03/30 03:19:49;;;;;;;;;;;;;;;22.15;35.67;99051.72;4212437;28;19950;-68
2024/03/30 03:21:50;;;;;;;;;;;;;;;22.15;35.55;99057.91;4212202;28;19932;-66
2024/03/30 03:23:52;;;;;;;;;;;;;;;22.13;35.76;99054.56;4211765;28;19978;-66
2024/03/30 03:25:53;;;;;;;;;;;;;;;22.14;35.43;99050.03;4212443;28;19930;-66
2024/03/30 03:27:54;;;;;;;;;;;;;;;22.14;35.55;99048.22;4212499;28;19924;-66
2024/03/30 03:29:55;;;;;;;;;;;;;;;22.14;35.51;99050.03;4212315;28;19931;-67
2024/03/30 03:31:56;;;;;;;;;;;;;;;22.14;35.71;99050.03;4212072;28;19930;-66
2024/03/30 03:33:57;;;;;;;;;;;;;;;22.13;35.46;99046.53;4212393;28;19924;-66
2024/03/30 03:36:00;;;;;;;;;;;;;;;22.13;35.55;99046.53;4212373;28;19928;-67
2024/03/30 03:38:01;;;;;;;;;;;;;;;22.14;35.48;99045.53;4211876;28;19924;-65
2024/03/30 03:40:02;;;;;;;;;;;;;;;22.15;35.74;99051.72;4211959;28;19931;-66
2024/03/30 03:42:03;;;;;;;;;;;;;;;22.14;35.55;99048.22;4212276;28;19924;-66
2024/03/30 03:44:04;;;;;;;;;;;;;;;22.13;35.84;99037.69;4212144;28;19928;-67
2024/03/30 03:46:06;;;;;;;;;;;;;;;22.12;35.63;99042.19;4212315;28;19924;-67
2024/03/30 03:48:07;;;;;;;;;;;;;;;22.12;35.63;99038.69;4212161;28;20271;-67
2024/03/30 03:50:08;;;;;;;;;;;;;;;22.10;35.47;99036.19;4212114;28;19931;-67
2024/03/30 03:52:09;;;;;;;;;;;;;;;22.11;35.35;99032.47;4211646;28;19928;-66
2024/03/30 03:54:10;;;;;;;;;;;;;;;22.10;35.64;99032.66;4212081;28;19924;-69
2024/03/30 03:56:11;;;;;;;;;;;;;;;22.12;35.38;99036.00;4211863;28;19924;-66
2024/03/30 03:58:13;;;;;;;;;;;;;;;22.12;35.59;99036.00;4211977;28;19930;-66
2024/03/30 04:00:14;;;;;;;;;;;;;;;22.10;35.47;99036.19;4212058;28;19925;-68
2024/03/30 04:02:15;;;;;;;;;;;;;;;22.11;35.81;99034.34;4212064;28;19924;-68
2024/03/30 04:04:17;;;;;;;;;;;;;;;22.10;35.63;99025.47;4211913;28;19997;-67
2024/03/30 04:06:18;;;;;;;;;;;;;;;22.11;35.48;99021.78;4211885;28;19924;-67
2024/03/30 04:08:19;;;;;;;;;;;;;;;22.12;35.64;99023.44;4211674;28;19934;-67
2024/03/30 04:10:20;;;;;;;;;;;;;;;22.11;35.40;99019.09;4212241;28;19924;-68
2024/03/30 04:12:21;;;;;;;;;;;;;;;22.11;35.34;99019.09;4211966;28;19924;-67
2024/03/30 04:14:22;;;;;;;;;;;;;;;22.09;35.76;99018.44;4212268;28;20491;-65
2024/03/30 04:16:23;;;;;;;;;;;;;;;22.11;35.45;99029.81;4212894;28;20393;-66
2024/03/30 04:18:24;;;;;;;;;;;;;;;22.09;35.64;99031.84;4214983;28;19930;-67
2024/03/30 04:20:25;;;;;;;;;;;;;;;22.09;35.59;99028.31;4215015;28;19930;-66
2024/03/30 04:22:27;;;;;;;;;;;;;;;22.09;35.69;99020.28;4214635;28;19931;-66
2024/03/30 04:24:28;;;;;;;;;;;;;;;22.09;35.64;99013.09;4214844;28;19924;-66
2024/03/30 04:26:29;;;;;;;;;;;;;;;22.09;35.66;99010.41;4214906;28;19928;-66
2024/03/30 04:28:30;;;;;;;;;;;;;;;22.09;35.42;99009.56;4214965;28;20347;-66
2024/03/30 04:30:31;;;;;;;;;;;;;;;22.09;35.38;99012.25;4214640;28;20520;-66
2024/03/30 04:32:33;;;;;;;;;;;;;;;22.09;35.67;99012.25;4214900;28;19924;-68
2024/03/30 04:34:35;;;;;;;;;;;;;;;22.07;35.39;99007.06;4214816;28;19946;-68
2024/03/30 04:36:36;;;;;;;;;;;;;;;22.07;35.40;99012.41;4214504;28;19938;-68
2024/03/30 04:38:37;;;;;;;;;;;;;;;22.06;35.68;99001.88;4214802;28;19924;-67
2024/03/30 04:40:38;;;;;;;;;;;;;;;22.07;35.21;99000.88;4214533;28;19924;-68
2024/03/30 04:42:39;;;;;;;;;;;;;;;22.05;35.62;98990.34;4214783;28;19934;-68
2024/03/30 04:44:40;;;;;;;;;;;;;;;22.06;35.56;98999.22;4214506;28;20316;-68
2024/03/30 04:46:41;;;;;;;;;;;;;;;22.04;35.40;98999.38;4214480;28;19924;-67
2024/03/30 04:48:45;;;;;;;;;;;;;;;22.05;35.42;98994.88;4214472;28;20432;-67
2024/03/30 04:50:46;;;;;;;;;;;;;;;22.04;35.62;99003.91;4197300;28;19931;-67
2024/03/30 04:52:48;;;;;;;;;;;;;;;22.05;35.34;99014.44;4214465;28;19924;-67
2024/03/30 04:54:49;;;;;;;;;;;;;;;22.05;35.68;99011.75;4214458;28;19934;-66
2024/03/30 04:56:51;;;;;;;;;;;;;;;22.06;35.50;99009.91;4214597;28;19924;-67
2024/03/30 04:58:52;;;;;;;;;;;;;;;22.06;35.36;99015.28;4214242;28;19924;-67
2024/03/30 05:00:53;;;;;;;;;;;;;;;22.06;35.45;99013.41;4214444;28;19977;-68
2024/03/30 05:02:54;;;;;;;;;;;;;;;22.06;35.43;99021.44;4214460;28;19924;-68
2024/03/30 05:04:55;;;;;;;;;;;;;;;22.05;35.47;99027.81;4213980;28;19934;-67
2024/03/30 05:06:56;;;;;;;;;;;;;;;22.02;35.61;99031.66;4214351;28;20327;-67
2024/03/30 05:08:58;;;;;;;;;;;;;;;22.04;35.50;99036.84;4213974;28;20007;-68
2024/03/30 05:10:59;;;;;;;;;;;;;;;22.03;35.50;99045.91;4214119;28;19928;-65
2024/03/30 05:13:00;;;;;;;;;;;;;;;22.01;35.48;99051.41;4214030;28;19928;-66
2024/03/30 05:15:01;;;;;;;;;;;;;;;22.01;35.69;99048.72;4214176;28;19930;-67
2024/03/30 05:17:02;;;;;;;;;;;;;;;22.01;35.55;99045.22;4197300;28;19931;-66
2024/03/30 05:20:42;;;;;;;;;;;;;;;22.02;35.46;99041.56;4213971;28;19931;-66
2024/03/30 05:21:26;;;;;;;;;;;;;;;22.01;35.63;99051.41;4214089;28;20388;-67
2024/03/30 05:23:30;;;;;;;;;;;;;;;22.01;35.44;99064.78;4213804;28;19924;-66
2024/03/30 05:25:32;;;;;;;;;;;;;;;22.01;35.46;99053.25;4214006;28;19924;-67
2024/03/30 05:27:33;;;;;;;;;;;;;;;22.02;35.56;99068.31;4213980;28;19928;-67
2024/03/30 05:29:34;;;;;;;;;;;;;;;22.01;35.58;99070.16;4214060;28;20431;-66
2024/03/30 05:31:35;;;;;;;;;;;;;;;22.00;35.39;99065.78;4213579;28;20447;-67
2024/03/30 05:33:36;;;;;;;;;;;;;;;22.01;35.45;99072.81;4213321;28;19924;-67
2024/03/30 05:35:37;;;;;;;;;;;;;;;22.00;35.61;99075.69;4213828;28;19928;-66
2024/03/30 05:37:38;;;;;;;;;;;;;;;21.98;35.50;99075.00;4213936;28;20285;-66
2024/03/30 05:39:39;;;;;;;;;;;;;;;21.99;35.74;99082.03;4213897;28;19934;-67
2024/03/30 05:41:40;;;;;;;;;;;;;;;21.98;35.31;99091.06;4213768;28;19924;-66
2024/03/30 05:43:42;;;;;;;;;;;;;;;21.99;35.61;99098.09;4213706;28;19924;-66
2024/03/30 05:45:47;;;;;;;;;;;;;;;21.98;35.51;99089.25;4213708;28;19931;-67
2024/03/30 05:47:48;;;;;;;;;;;;;;;21.98;35.56;99099.09;4213779;28;19924;-67
2024/03/30 05:49:49;;;;;;;;;;;;;;;21.98;35.34;99097.28;4213168;28;19924;-67
2024/03/30 05:51:50;;;;;;;;;;;;;;;21.98;35.38;99099.94;4213272;28;19969;-67
2024/03/30 05:53:51;;;;;;;;;;;;;;;21.99;35.56;99103.44;4213363;28;19924;-66
2024/03/30 05:55:52;;;;;;;;;;;;;;;21.99;35.64;99108.81;4213431;28;19924;-66
2024/03/30 05:58:02;;;;;;;;;;;;;;;21.99;35.50;99111.47;4213675;28;19947;-67
2024/03/30 06:00:05;;;;;;;;;;;;;;;21.98;35.69;99107.13;4196638;28;19924;-68
2024/03/30 06:02:06;;;;;;;;;;;;;;;21.98;35.50;99113.31;4213714;28;19924;-68
2024/03/30 06:04:07;;;;;;;;;;;;;;;21.97;35.35;99124.19;4213210;28;19924;-66
2024/03/30 06:06:08;;;;;;;;;;;;;;;21.95;35.71;99124.34;4213397;28;19924;-67
2024/03/30 06:08:09;;;;;;;;;;;;;;;21.96;35.41;99128.72;4213308;28;19947;-66
2024/03/30 06:10:10;;;;;;;;;;;;;;;21.95;35.44;99135.06;4213440;28;19928;-66
2024/03/30 06:12:11;;;;;;;;;;;;;;;21.96;35.50;99128.72;4213245;28;19924;-66
2024/03/30 06:14:12;;;;;;;;;;;;;;;21.96;35.46;99130.56;4213366;28;19923;-65
2024/03/30 06:16:15;;;;;;;;;;;;;;;21.95;35.77;99121.69;4213447;28;19978;-66
2024/03/30 06:18:17;;;;;;;;;;;;;;;21.97;35.46;99117.00;4229801;28;19927;-67
2024/03/30 06:20:18;;;;;;;;;;;;;;;21.97;35.54;99105.44;4213051;28;20343;-66
2024/03/30 06:22:19;;;;;;;;;;;;;;;21.98;35.61;99107.13;4213113;28;19924;-66
2024/03/30 06:24:20;;;;;;;;;;;;;;;21.98;35.47;99112.47;4213079;28;19928;-66
2024/03/30 06:26:21;;;;;;;;;;;;;;;21.98;35.51;99125.84;4213268;28;19931;-67
2024/03/30 06:28:22;;;;;;;;;;;;;;;21.98;35.49;99129.38;4213189;28;19930;-65
2024/03/30 06:30:23;;;;;;;;;;;;;;;21.96;35.77;99126.03;4212856;28;19925;-67
2024/03/30 06:32:25;;;;;;;;;;;;;;;21.97;35.72;99118.81;4212651;28;19978;-67
2024/03/30 06:34:26;;;;;;;;;;;;;;;21.96;35.72;99130.56;4212806;28;19928;-66
2024/03/30 06:36:27;;;;;;;;;;;;;;;21.94;35.46;99122.69;4212854;28;19924;-66
2024/03/30 06:38:28;;;;;;;;;;;;;;;21.94;35.72;99119.19;4212987;28;19947;-67
2024/03/30 06:45:08;;;;;;;;;;;;;;;21.94;35.50;99130.72;4212957;28;20254;-67
2024/03/30 06:47:09;;;;;;;;;;;;;;;21.95;35.53;99137.75;4212475;28;19925;-65
2024/03/30 06:49:10;;;;;;;;;;;;;;;21.95;35.67;99140.41;4212686;28;19928;-66
2024/03/30 06:51:11;;;;;;;;;;;;;;;21.95;35.66;99139.59;4195843;28;19925;-65
2024/03/30 06:53:12;;;;;;;;;;;;;;;21.95;35.94;99131.56;4212523;28;19978;-66
2024/03/30 06:55:13;;;;;;;;;;;;;;;21.95;35.46;99110.97;4212782;28;19931;-66
2024/03/30 06:57:15;;;;;;;;;;;;;;;21.97;35.50;99084.03;4212670;28;20287;-67
2024/03/30 06:59:17;;;;;;;;;;;;;;;21.94;35.80;99084.38;4212509;28;19924;-66
2024/03/30 07:01:18;;;;;;;;;;;;;;;21.94;35.85;99103.13;4212402;28;19946;-66
2024/03/30 07:03:19;;;;;;;;;;;;;;;21.93;35.84;99118.31;4212678;28;19951;-66
2024/03/30 07:05:21;;;;;;;;;;;;;;;21.92;35.89;99126.53;4212300;28;20442;-66
2024/03/30 07:07:22;;;;;;;;;;;;;;;21.92;35.73;99131.88;4212438;28;19930;-66
2024/03/30 07:09:23;;;;;;;;;;;;;;;21.94;35.90;99137.91;4195574;28;19990;-67
2024/03/30 07:11:24;;;;;;;;;;;;;;;21.94;35.88;99157.47;4195764;28;19924;-66
2024/03/30 07:13:25;;;;;;;;;;;;;;;21.94;35.64;99173.53;4212588;28;20377;-66
2024/03/30 07:15:27;;;;;;;;;;;;;;;21.94;35.99;99172.72;4212219;28;20401;-66
2024/03/30 07:17:28;;;;;;;;;;;;;;;21.94;35.89;99178.88;4246382;28;19929;-67
2024/03/30 07:19:29;;;;;;;;;;;;;;;21.94;35.80;99183.41;4212586;28;19930;-66
2024/03/30 07:21:30;;;;;;;;;;;;;;;21.94;35.72;99192.28;4212435;28;19950;-67
2024/03/30 07:23:32;;;;;;;;;;;;;;;21.93;35.86;99189.78;4212468;28;20400;-66
2024/03/30 07:25:36;;;;;;;;;;;;;;;21.94;35.94;99183.41;4212443;28;19924;-67
2024/03/30 07:27:37;;;;;;;;;;;;;;;21.94;35.85;99184.25;4212684;28;19928;-66
2024/03/30 07:29:38;;;;;;;;;;;;;;;21.94;35.95;99183.41;4211941;28;19926;-66
2024/03/30 07:31:39;;;;;;;;;;;;;;;21.91;35.85;99187.28;4212200;28;20411;-66
2024/03/30 07:33:40;;;;;;;;;;;;;;;21.91;35.61;99189.09;4212251;28;19943;-67
2024/03/30 07:35:41;;;;;;;;;;;;;;;21.90;35.98;99185.59;4195457;28;19925;-66
2024/03/30 07:37:42;;;;;;;;;;;;;;;21.92;35.88;99178.25;4212236;28;20075;-67
2024/03/30 07:39:44;;;;;;;;;;;;;;;21.92;35.83;99172.03;4212112;28;19924;-67
2024/03/30 07:41:45;;;;;;;;;;;;;;;21.93;35.80;99168.34;4212421;28;19932;-67
2024/03/30 07:43:46;;;;;;;;;;;;;;;21.93;35.97;99158.47;4212321;28;19930;-67
2024/03/30 07:45:47;;;;;;;;;;;;;;;21.94;35.77;99149.44;4211939;28;20397;-67
2024/03/30 07:47:48;;;;;;;;;;;;;;;21.95;35.67;99136.91;4212097;28;19924;-67
2024/03/30 07:49:49;;;;;;;;;;;;;;;21.95;35.78;99128.88;4212108;28;19924;-67
2024/03/30 07:51:50;;;;;;;;;;;;;;;21.95;35.96;99135.06;4214269;28;19928;-68
2024/03/30 07:53:51;;;;;;;;;;;;;;;21.96;35.54;99165.38;4215558;28;19930;-67
2024/03/30 07:55:52;;;;;;;;;;;;;;;21.95;35.62;99172.53;4215594;28;19930;-67
2024/03/30 07:57:54;;;;;;;;;;;;;;;21.95;35.98;99182.41;4198654;28;20417;-67
2024/03/30 07:59:55;;;;;;;;;;;;;;;21.94;35.70;99173.53;4214937;28;19924;-67
2024/03/30 08:01:56;;;;;;;;;;;;;;;21.94;35.72;99172.72;4215217;28;19924;-67
2024/03/30 08:03:57;;;;;;;;;;;;;;;21.94;36.02;99167.34;4215442;28;19924;-67
2024/03/30 08:05:59;;;;;;;;;;;;;;;21.93;35.91;99163.81;4215011;28;19934;-67
2024/03/30 08:08:01;;;;;;;;;;;;;;;21.94;35.79;99170.88;4215180;28;20439;-67
2024/03/30 08:10:02;;;;;;;;;;;;;;;21.94;35.75;99170.88;4215221;28;19924;-66
2024/03/30 08:12:03;;;;;;;;;;;;;;;21.94;35.79;99173.53;4214985;28;20432;-66
2024/03/30 08:14:05;;;;;;;;;;;;;;;21.95;35.94;99167.19;4214717;28;19928;-66
2024/03/30 08:16:06;;;;;;;;;;;;;;;21.94;35.72;99184.25;4215258;28;19936;-67
2024/03/30 08:18:07;;;;;;;;;;;;;;;21.95;35.81;99201.16;4215089;28;19966;-67
2024/03/30 08:20:09;;;;;;;;;;;;;;;21.94;35.67;99200.31;4215116;28;19927;-66
2024/03/30 08:22:10;;;;;;;;;;;;;;;21.94;35.83;99207.50;4214791;28;19924;-66
2024/03/30 08:24:11;;;;;;;;;;;;;;;21.94;36.05;99204.84;4214896;28;19931;-66
2024/03/30 08:26:13;;;;;;;;;;;;;;;21.91;35.90;99203.31;4198177;28;19925;-66
2024/03/30 08:28:14;;;;;;;;;;;;;;;21.90;35.93;99204.31;4214745;28;19924;-66
2024/03/30 08:30:15;;;;;;;;;;;;;;;21.90;36.05;99211.53;4214680;28;20354;-66
2024/03/30 08:32:16;;;;;;;;;;;;;;;21.90;35.87;99209.69;4214874;28;19928;-65
2024/03/30 08:34:18;;;;;;;;;;;;;;;21.91;36.00;99213.19;4214707;28;20389;-66
2024/03/30 08:36:19;;;;;;;;;;;;;;;21.92;35.98;99225.56;4214547;28;19930;-66
2024/03/30 08:38:20;;;;;;;;;;;;;;;21.92;35.97;99223.75;4214853;28;19930;-65
2024/03/30 08:40:21;;;;;;;;;;;;;;;21.92;36.00;99238.94;4214623;28;20412;-66
2024/03/30 08:42:22;;;;;;;;;;;;;;;21.93;35.76;99237.94;4214284;28;19931;-67
2024/03/30 08:44:23;;;;;;;;;;;;;;;21.93;35.70;99246.81;4248636;27;19928;-67
2024/03/30 08:46:24;;;;;;;;;;;;;;;21.93;35.79;99256.69;4214679;28;19931;-66
2024/03/30 08:48:26;;;;;;;;;;;;;;;21.91;35.54;99264.88;4197705;28;19928;-67
2024/03/30 08:50:27;;;;;;;;;;;;;;;21.92;35.92;99263.03;4214505;28;20409;-67
2024/03/30 08:52:28;;;;;;;;;;;;;;;21.91;35.86;99261.34;4214289;28;20431;-66
2024/03/30 08:54:29;;;;;;;;;;;;;;;21.90;35.78;99279.28;4214658;28;20337;-66
2024/03/30 08:56:30;;;;;;;;;;;;;;;21.89;35.80;99282.94;4214267;28;20397;-66
2024/03/30 08:58:31;;;;;;;;;;;;;;;21.90;35.72;99284.63;4214140;28;19924;-66
2024/03/30 09:00:36;;;;;;;;;;;;;;;21.91;35.74;99282.78;4214152;28;19924;-66
2024/03/30 09:02:37;;;;;;;;;;;;;;;21.90;35.54;99286.47;4214019;28;19924;-66
2024/03/30 09:04:38;;;;;;;;;;;;;;;21.90;35.96;99295.34;4214342;28;19924;-66
2024/03/30 09:06:40;;;;;;;;;;;;;;;21.91;35.80;99294.34;4214185;28;19932;-67
2024/03/30 09:08:42;;;;;;;;;;;;;;;21.90;35.61;99299.88;4213866;28;19924;-67
2024/03/30 09:10:43;;;;;;;;;;;;;;;21.93;35.77;99296.84;4214260;28;20308;-67
2024/03/30 09:12:44;;;;;;;;;;;;;;;21.94;36.08;99303.88;4213783;28;20385;-67
2024/03/30 09:14:46;;;;;;;;;;;;;;;21.91;35.63;99301.50;4214159;28;20405;-67
2024/03/30 09:16:47;;;;;;;;;;;;;;;21.91;35.86;99310.41;4214272;28;19924;-66
2024/03/30 09:18:48;;;;;;;;;;;;;;;21.91;35.93;99318.44;4214198;28;19931;-66
2024/03/30 09:20:49;;;;;;;;;;;;;;;21.89;35.75;99308.88;4213867;28;19924;-66
2024/03/30 09:22:50;;;;;;;;;;;;;;;21.88;35.65;99313.38;4213841;28;19975;-67
2024/03/30 09:24:53;;;;;;;;;;;;;;;21.88;35.89;99328.63;4230754;28;19996;-66
2024/03/30 09:26:56;;;;;;;;;;;;;;;21.87;36.06;99325.09;4213693;28;19924;-67
2024/03/30 09:28:57;;;;;;;;;;;;;;;21.86;35.94;99323.44;4214033;28;20306;-67
2024/03/30 09:30:58;;;;;;;;;;;;;;;21.85;35.87;99329.78;4213772;28;20031;-67
2024/03/30 09:32:59;;;;;;;;;;;;;;;21.86;35.79;99326.13;4213899;28;19979;-67
2024/03/30 09:35:00;;;;;;;;;;;;;;;21.87;35.93;99325.09;4213839;28;20364;-66
2024/03/30 09:37:04;;;;;;;;;;;;;;;21.88;35.82;99326.75;4213777;28;19928;-67
2024/03/30 09:39:05;;;;;;;;;;;;;;;21.90;35.65;99327.44;4213862;28;19927;-67
2024/03/30 09:41:10;;;;;;;;;;;;;;;21.91;35.73;99328.28;4213447;28;20015;-68
2024/03/30 09:43:11;;;;;;;;;;;;;;;21.92;35.64;99332.63;4213719;28;20332;-67
2024/03/30 09:45:12;;;;;;;;;;;;;;;21.91;35.81;99334.47;4213515;28;19928;-66
2024/03/30 09:47:13;;;;;;;;;;;;;;;21.91;35.54;99334.47;4213809;28;19924;-67
2024/03/30 09:49:14;;;;;;;;;;;;;;;21.90;35.99;99343.50;4213684;28;19931;-66
2024/03/30 09:51:16;;;;;;;;;;;;;;;21.88;35.85;99342.81;4213623;28;19924;-66
2024/03/30 09:53:17;;;;;;;;;;;;;;;21.89;35.99;99336.47;4213542;28;19930;-67
2024/03/30 09:55:24;;;;;;;;;;;;;;;21.88;35.78;99342.81;4213110;28;19932;-66
2024/03/30 09:57:26;;;;;;;;;;;;;;;21.89;35.97;99343.69;4196714;28;20402;-66
2024/03/30 09:59:27;;;;;;;;;;;;;;;21.90;35.81;99340.00;4196651;28;19924;-69
2024/03/30 10:01:28;;;;;;;;;;;;;;;21.93;35.73;99337.00;4173568;28;19925;-69
2024/03/30 10:03:29;;;;;;;;;;;;;;;21.92;35.67;99340.66;4193784;28;19960;-68
2024/03/30 10:05:34;;;;;;;;;;;;;;;21.91;36.11;99347.88;4189825;28;19932;-67
2024/03/30 10:07:58;;;;;;;;;;;;;;;21.92;35.60;99344.19;4190154;28;20424;-67
2024/03/30 10:10:02;;;;;;;;;;;;;;;21.91;35.83;99347.88;4189851;28;19924;-69
2024/03/30 10:12:26;;;;;;;;;;;;;;;21.94;35.88;99346.69;4179163;28;20443;-69
2024/03/30 10:14:35;;;;;;;;;;;;;;;21.95;35.87;99343.84;4217628;28;20419;-68
2024/03/30 10:16:36;;;;;;;;;;;;;;;21.96;35.73;99344.72;4195676;28;19924;-69
2024/03/30 10:18:37;;;;;;;;;;;;;;;21.94;35.89;99347.53;4195412;28;19924;-70
2024/03/30 10:20:38;;;;;;;;;;;;;;;21.93;35.74;99345.84;4195829;28;20007;-69
2024/03/30 10:22:39;;;;;;;;;;;;;;;21.95;35.75;99351.06;4198914;28;20384;-70
2024/03/30 10:24:40;;;;;;;;;;;;;;;21.94;36.13;99341.34;4194894;28;19931;-70
2024/03/30 10:26:41;;;;;;;;;;;;;;;21.92;36.18;99332.63;4194747;28;19932;-71
2024/03/30 10:28:43;;;;;;;;;;;;;;;21.93;35.86;99337.81;4190620;28;19931;-72
2024/03/30 10:30:44;;;;;;;;;;;;;;;21.94;36.23;99336.00;4194795;28;19925;-71
2024/03/30 10:32:45;;;;;;;;;;;;;;;21.94;36.22;99333.31;4194255;28;19925;-71
2024/03/30 10:34:46;;;;;;;;;;;;;;;21.94;36.20;99336.81;4178104;28;20069;-69
2024/03/30 10:36:48;;;;;;;;;;;;;;;21.94;36.11;99339.50;4194844;28;20010;-69
2024/03/30 10:38:49;;;;;;;;;;;;;;;21.96;36.56;99337.50;4194362;28;19929;-70